• Join FlightAware (Why Join?)
  • Login
  • US Flag 
11:35PM EDT


 

Airport Tracker/Info


-or-


 

Live Flight TrackerFlight Track Log ✈ JUS327 ✈ 07-May-2013 ✈ KSDF - KYIP

Flight Track Log - Related Links

Times and Time Zones

All times are in EDT time to prevent confusion due to time zone crossing. See the JUS327 flight status page for this flight to view local times or setup timezone preferences in your user account.

Time Position Orientation Groundspeed Altitude Reporting Facility
EDT Latitude Longitude Course Direction KTS MPH feet Rate Location/Type
08:17PM 38.2739 -85.7708 352° North 194 223 4,800  Level Indianapolis Center
08:18PM 38.3403 -85.8139 333° Northwest 253 291 8,300 3,000 Climbing Indianapolis Center
08:19PM 38.4097 -85.8508 337° Northwest 268 308 11,000 2,940 Climbing Indianapolis Center
08:20PM 38.5167 -85.8689 352° North 322 371 14,400 2,880 Climbing Indianapolis Center
08:21PM 38.6106 -85.8622 North 335 386 17,000 2,400 Climbing Indianapolis Center
08:22PM 38.7017 -85.8625 360° North 347 399 19,400 2,280 Climbing Indianapolis Center
08:23PM 38.8011 -85.8619 360° North 357 411 21,800 2,160 Climbing Indianapolis Center
08:24PM 38.9039 -85.8542 North 369 425 23,900 2,040 Climbing Indianapolis Center
08:25PM 39.0325 -85.8444 North 385 443 26,100 1,440 Climbing Indianapolis Center
08:26PM 39.1458 -85.8475 359° North 405 466 26,900 420 Climbing Indianapolis Center
08:27PM 39.2622 -85.8367 North 420 483 27,000  Climbing Indianapolis Center
08:28PM 39.3831 -85.8311 North 434 499 27,000  Level Indianapolis Center
08:29PM 39.5053 -85.8361 358° North 442 509 27,000  Level Indianapolis Center
08:30PM 39.6497 -85.8150 North 442 509 27,000  Level Indianapolis Center
08:31PM 39.7658 -85.7650 18° North 444 511 27,000  Level Indianapolis Center
08:32PM 39.8819 -85.7169 18° North 442 509 27,000  Level Indianapolis Center
08:33PM 40.0003 -85.6867 11° North 439 505 27,000  Level Indianapolis Center
08:34PM 40.1144 -85.6356 19° North 440 506 27,000  Level Indianapolis Center
08:35PM 40.2200 -85.5592 29° Northeast 438 504 27,000  Level Chicago Center
08:36PM 40.3325 -85.5044 20° North 432 497 27,000  Level Chicago Center
08:37PM 40.4461 -85.4544 19° North 432 497 27,000  Level Chicago Center
08:38PM 40.5553 -85.3881 25° Northeast 433 498 27,000 -180 Level Chicago Center
08:39PM 40.6833 -85.3325 18° North 428 493 26,700 -1,320 Descending Chicago Center
08:40PM 40.7881 -85.2856 19° North 408 470 24,300 -2,220 Descending Chicago Center
08:41PM 40.8808 -85.2294 25° Northeast 377 434 22,200 -1,620 Descending Chicago Center
08:42PM 40.9761 -85.1875 18° North 365 420 21,000 -600 Descending Chicago Center
08:43PM 41.0722 -85.1486 17° North 363 418 21,000  Level Chicago Center
08:44PM 41.1889 -85.1075 15° North 363 418 21,000  Level Chicago Center
08:45PM 41.2847 -85.0611 20° North 367 422 21,000  Level Chicago Center
08:46PM 41.3861 -85.0325 12° North 374 430 21,000 -60 Level Chicago Center
08:47PM 41.4700 -84.9578 34° Northeast 381 438 20,900 -780 Descending Chicago Center
08:48PM 41.5347 -84.8550 50° Northeast 368 423 19,400 -1,620 Descending Chicago Center
08:49PM 41.6103 -84.7411 48° Northeast 346 398 17,600 -1,620 Descending Chicago Center
08:50PM 41.6314 -84.7036 53° Northeast 346 398 17,200 -1,440 Descending Cleveland Center
08:51PM 41.6892 -84.6072 51° Northeast 338 389 15,700 -1,500 Descending Cleveland Center
08:52PM 41.7508 -84.5136 49° Northeast 333 383 14,300 -1,380 Descending Cleveland Center
08:53PM 41.7931 -84.4381 53° Northeast 326 375 13,200 -1,560 Descending Cleveland Center
08:54PM 41.8656 -84.3281 48° Northeast 328 377 11,200 -1,380 Descending Cleveland Center
08:55PM 41.9100 -84.2414 55° Northeast 322 371 10,200 -540 Descending Cleveland Center
08:56PM 41.9714 -84.1444 50° Northeast 274 315 10,100 -600 Descending Cleveland Center
08:57PM 42.0147 -84.0908 43° Northeast 277 319 9,100 -1,320 Descending Cleveland Center
08:57PM 42.0364 -84.0669 39° Northeast 259 298 8,500 -2,040 Descending Cleveland Center
08:58PM 42.0817 -84.0133 41° Northeast 261 300 6,900 -1,860 Descending Cleveland Center
08:59PM 42.1339 -83.9378 47° Northeast 256 295 5,000 -1,320 Descending Cleveland Center
09:00PM 42.1694 -83.8611 58° Northeast 209 241 4,200 -600 Descending Cleveland Center
09:01PM 42.1978 -83.8178 49° Northeast 190 219 4,000 -540 Descending Cleveland Center
09:02PM 42.2228 -83.7517 63° Northeast 207 238 3,300 -780 Descending Cleveland Center
09:03PM 42.2411 -83.6853 70° East 190 219 2,500 -420 Descending Cleveland Center
09:04PM 42.2636 -83.6247 63° Northeast 181 208 2,500  Level Cleveland Center
09:05PM 42.3025 -83.5733 44° Northeast 173 199 2,500 -60 Level Cleveland Center
09:06PM 42.3183 -83.5289 64° Northeast 168 193 2,400 -360 Descending Cleveland Center
09:07PM 42.2881 -83.4856 133° Southeast 151 174 1,900 -540 Descending Cleveland Center